sensor_id;sensor_type;location;lat;lon;timestamp;P1;durP1;ratioP1;P2;durP2;ratioP2
18883;SDS011;9574;47.282;9.640;2023-01-15T00:01:50;1.20;;;1.10;;
18883;SDS011;9574;47.282;9.640;2023-01-15T00:04:17;2.60;;;1.20;;
18883;SDS011;9574;47.282;9.640;2023-01-15T00:06:44;2.77;;;1.40;;
18883;SDS011;9574;47.282;9.640;2023-01-15T00:09:12;1.23;;;1.13;;
18883;SDS011;9574;47.282;9.640;2023-01-15T00:11:40;2.50;;;1.53;;
18883;SDS011;9574;47.282;9.640;2023-01-15T00:14:07;1.90;;;1.40;;
18883;SDS011;9574;47.282;9.640;2023-01-15T00:16:35;1.20;;;1.10;;
18883;SDS011;9574;47.282;9.640;2023-01-15T00:19:04;1.33;;;1.23;;
18883;SDS011;9574;47.282;9.640;2023-01-15T00:21:35;1.43;;;1.30;;
18883;SDS011;9574;47.282;9.640;2023-01-15T00:24:02;1.87;;;1.57;;
18883;SDS011;9574;47.282;9.640;2023-01-15T00:26:47;1.50;;;1.40;;
18883;SDS011;9574;47.282;9.640;2023-01-15T00:29:31;1.20;;;1.10;;
18883;SDS011;9574;47.282;9.640;2023-01-15T00:32:00;2.03;;;1.13;;
18883;SDS011;9574;47.282;9.640;2023-01-15T00:34:28;1.30;;;1.03;;
18883;SDS011;9574;47.282;9.640;2023-01-15T00:36:56;1.10;;;1.00;;
18883;SDS011;9574;47.282;9.640;2023-01-15T00:39:23;1.10;;;1.00;;
18883;SDS011;9574;47.282;9.640;2023-01-15T00:41:50;1.10;;;0.80;;
18883;SDS011;9574;47.282;9.640;2023-01-15T00:44:18;1.57;;;0.90;;
18883;SDS011;9574;47.282;9.640;2023-01-15T00:46:45;1.57;;;1.10;;
18883;SDS011;9574;47.282;9.640;2023-01-15T00:49:14;2.83;;;1.03;;
18883;SDS011;9574;47.282;9.640;2023-01-15T00:51:41;1.53;;;1.40;;
18883;SDS011;9574;47.282;9.640;2023-01-15T00:54:08;1.23;;;0.90;;
18883;SDS011;9574;47.282;9.640;2023-01-15T00:56:35;0.90;;;0.73;;
18883;SDS011;9574;47.282;9.640;2023-01-15T00:59:02;1.83;;;1.00;;
18883;SDS011;9574;47.282;9.640;2023-01-15T01:01:30;1.07;;;0.97;;
18883;SDS011;9574;47.282;9.640;2023-01-15T01:03:58;2.77;;;0.73;;
18883;SDS011;9574;47.282;9.640;2023-01-15T01:06:26;0.80;;;0.80;;
18883;SDS011;9574;47.282;9.640;2023-01-15T01:08:54;1.20;;;1.10;;
18883;SDS011;9574;47.282;9.640;2023-01-15T01:11:22;1.10;;;0.90;;
18883;SDS011;9574;47.282;9.640;2023-01-15T01:13:51;0.70;;;0.70;;
18883;SDS011;9574;47.282;9.640;2023-01-15T01:16:22;0.83;;;0.83;;
18883;SDS011;9574;47.282;9.640;2023-01-15T01:18:51;1.43;;;0.80;;
18883;SDS011;9574;47.282;9.640;2023-01-15T01:21:19;3.10;;;0.90;;
18883;SDS011;9574;47.282;9.640;2023-01-15T01:23:48;2.63;;;1.00;;
18883;SDS011;9574;47.282;9.640;2023-01-15T01:26:15;0.83;;;0.80;;
18883;SDS011;9574;47.282;9.640;2023-01-15T01:28:42;0.83;;;0.83;;
18883;SDS011;9574;47.282;9.640;2023-01-15T01:31:13;0.80;;;0.80;;
18883;SDS011;9574;47.282;9.640;2023-01-15T01:33:40;1.50;;;1.00;;
18883;SDS011;9574;47.282;9.640;2023-01-15T01:36:07;1.40;;;1.00;;
18883;SDS011;9574;47.282;9.640;2023-01-15T01:38:34;1.10;;;0.80;;
18883;SDS011;9574;47.282;9.640;2023-01-15T01:41:02;1.00;;;0.90;;
18883;SDS011;9574;47.282;9.640;2023-01-15T01:43:29;0.80;;;0.80;;
18883;SDS011;9574;47.282;9.640;2023-01-15T01:45:56;2.87;;;0.93;;
18883;SDS011;9574;47.282;9.640;2023-01-15T01:48:25;0.83;;;0.70;;
18883;SDS011;9574;47.282;9.640;2023-01-15T01:50:57;0.70;;;0.70;;
18883;SDS011;9574;47.282;9.640;2023-01-15T01:53:30;1.27;;;1.00;;
18883;SDS011;9574;47.282;9.640;2023-01-15T01:55:58;1.07;;;0.87;;
18883;SDS011;9574;47.282;9.640;2023-01-15T01:58:29;2.50;;;1.00;;
18883;SDS011;9574;47.282;9.640;2023-01-15T02:00:58;2.13;;;0.90;;
18883;SDS011;9574;47.282;9.640;2023-01-15T02:03:26;1.50;;;0.90;;
18883;SDS011;9574;47.282;9.640;2023-01-15T02:05:58;1.30;;;0.77;;
18883;SDS011;9574;47.282;9.640;2023-01-15T02:08:28;0.77;;;0.77;;
18883;SDS011;9574;47.282;9.640;2023-01-15T02:10:56;0.80;;;0.80;;
18883;SDS011;9574;47.282;9.640;2023-01-15T02:13:24;1.30;;;0.80;;
18883;SDS011;9574;47.282;9.640;2023-01-15T02:15:59;0.80;;;0.80;;
18883;SDS011;9574;47.282;9.640;2023-01-15T02:18:31;0.60;;;0.60;;
18883;SDS011;9574;47.282;9.640;2023-01-15T02:21:05;0.83;;;0.77;;
18883;SDS011;9574;47.282;9.640;2023-01-15T02:23:52;0.73;;;0.70;;
18883;SDS011;9574;47.282;9.640;2023-01-15T02:26:40;0.83;;;0.80;;
18883;SDS011;9574;47.282;9.640;2023-01-15T02:29:35;0.70;;;0.60;;
18883;SDS011;9574;47.282;9.640;2023-01-15T02:32:09;1.00;;;0.70;;
18883;SDS011;9574;47.282;9.640;2023-01-15T02:34:40;0.60;;;0.60;;
18883;SDS011;9574;47.282;9.640;2023-01-15T02:37:13;1.27;;;1.17;;
18883;SDS011;9574;47.282;9.640;2023-01-15T02:39:45;1.60;;;1.13;;
18883;SDS011;9574;47.282;9.640;2023-01-15T02:42:16;1.10;;;0.83;;
18883;SDS011;9574;47.282;9.640;2023-01-15T02:44:47;1.00;;;0.90;;
18883;SDS011;9574;47.282;9.640;2023-01-15T02:47:18;1.23;;;0.90;;
18883;SDS011;9574;47.282;9.640;2023-01-15T02:49:49;2.20;;;0.90;;
18883;SDS011;9574;47.282;9.640;2023-01-15T02:52:19;1.70;;;0.93;;
18883;SDS011;9574;47.282;9.640;2023-01-15T02:54:49;6.33;;;1.00;;
18883;SDS011;9574;47.282;9.640;2023-01-15T02:57:20;1.37;;;0.93;;
18883;SDS011;9574;47.282;9.640;2023-01-15T02:59:48;2.77;;;1.10;;
18883;SDS011;9574;47.282;9.640;2023-01-15T03:02:18;1.37;;;0.87;;
18883;SDS011;9574;47.282;9.640;2023-01-15T03:04:51;0.83;;;0.83;;
18883;SDS011;9574;47.282;9.640;2023-01-15T03:07:22;0.87;;;0.87;;
18883;SDS011;9574;47.282;9.640;2023-01-15T03:09:53;1.00;;;0.90;;
18883;SDS011;9574;47.282;9.640;2023-01-15T03:12:24;1.87;;;1.30;;
18883;SDS011;9574;47.282;9.640;2023-01-15T03:14:56;1.30;;;0.77;;
18883;SDS011;9574;47.282;9.640;2023-01-15T03:17:33;0.70;;;0.70;;
18883;SDS011;9574;47.282;9.640;2023-01-15T03:20:05;0.70;;;0.70;;
18883;SDS011;9574;47.282;9.640;2023-01-15T03:22:38;1.03;;;1.03;;
18883;SDS011;9574;47.282;9.640;2023-01-15T03:25:08;1.03;;;0.80;;
18883;SDS011;9574;47.282;9.640;2023-01-15T03:27:40;1.10;;;0.70;;
18883;SDS011;9574;47.282;9.640;2023-01-15T03:30:08;1.90;;;0.90;;
18883;SDS011;9574;47.282;9.640;2023-01-15T03:32:37;0.50;;;0.50;;
18883;SDS011;9574;47.282;9.640;2023-01-15T03:35:04;0.67;;;0.67;;
18883;SDS011;9574;47.282;9.640;2023-01-15T03:37:35;0.50;;;0.50;;
18883;SDS011;9574;47.282;9.640;2023-01-15T03:40:02;0.57;;;0.57;;
18883;SDS011;9574;47.282;9.640;2023-01-15T03:42:36;2.40;;;0.80;;
18883;SDS011;9574;47.282;9.640;2023-01-15T03:45:11;0.40;;;0.40;;
18883;SDS011;9574;47.282;9.640;2023-01-15T03:47:48;0.70;;;0.70;;
18883;SDS011;9574;47.282;9.640;2023-01-15T03:50:24;0.60;;;0.60;;
18883;SDS011;9574;47.282;9.640;2023-01-15T03:52:59;0.60;;;0.50;;
18883;SDS011;9574;47.282;9.640;2023-01-15T03:55:32;0.93;;;0.87;;
18883;SDS011;9574;47.282;9.640;2023-01-15T03:58:13;1.67;;;0.93;;
18883;SDS011;9574;47.282;9.640;2023-01-15T04:00:45;1.53;;;0.70;;
18883;SDS011;9574;47.282;9.640;2023-01-15T04:03:14;0.60;;;0.60;;
18883;SDS011;9574;47.282;9.640;2023-01-15T04:05:43;0.50;;;0.50;;
18883;SDS011;9574;47.282;9.640;2023-01-15T04:08:11;0.60;;;0.60;;
18883;SDS011;9574;47.282;9.640;2023-01-15T04:10:49;0.60;;;0.60;;
18883;SDS011;9574;47.282;9.640;2023-01-15T04:13:18;0.60;;;0.60;;
18883;SDS011;9574;47.282;9.640;2023-01-15T04:15:46;0.80;;;0.70;;
18883;SDS011;9574;47.282;9.640;2023-01-15T04:18:13;1.00;;;0.80;;
18883;SDS011;9574;47.282;9.640;2023-01-15T04:20:40;0.60;;;0.60;;
18883;SDS011;9574;47.282;9.640;2023-01-15T04:23:07;0.70;;;0.70;;
18883;SDS011;9574;47.282;9.640;2023-01-15T04:25:34;1.87;;;0.70;;
18883;SDS011;9574;47.282;9.640;2023-01-15T04:28:01;2.00;;;0.80;;
18883;SDS011;9574;47.282;9.640;2023-01-15T04:30:30;0.60;;;0.60;;
18883;SDS011;9574;47.282;9.640;2023-01-15T04:32:57;0.50;;;0.50;;
18883;SDS011;9574;47.282;9.640;2023-01-15T04:35:24;2.93;;;0.60;;
18883;SDS011;9574;47.282;9.640;2023-01-15T04:37:53;0.50;;;0.50;;
18883;SDS011;9574;47.282;9.640;2023-01-15T04:40:20;0.60;;;0.60;;
18883;SDS011;9574;47.282;9.640;2023-01-15T04:43:05;0.60;;;0.60;;
18883;SDS011;9574;47.282;9.640;2023-01-15T04:46:06;0.60;;;0.60;;
18883;SDS011;9574;47.282;9.640;2023-01-15T04:48:33;0.60;;;0.60;;
18883;SDS011;9574;47.282;9.640;2023-01-15T04:51:04;0.70;;;0.60;;
18883;SDS011;9574;47.282;9.640;2023-01-15T04:53:32;0.70;;;0.70;;
18883;SDS011;9574;47.282;9.640;2023-01-15T04:55:59;0.60;;;0.50;;
18883;SDS011;9574;47.282;9.640;2023-01-15T04:58:27;0.87;;;0.60;;
18883;SDS011;9574;47.282;9.640;2023-01-15T05:00:54;0.70;;;0.70;;
18883;SDS011;9574;47.282;9.640;2023-01-15T05:03:23;0.63;;;0.63;;
18883;SDS011;9574;47.282;9.640;2023-01-15T05:05:50;4.13;;;0.70;;
18883;SDS011;9574;47.282;9.640;2023-01-15T05:08:17;0.53;;;0.53;;
18883;SDS011;9574;47.282;9.640;2023-01-15T05:10:44;0.70;;;0.70;;
18883;SDS011;9574;47.282;9.640;2023-01-15T05:13:11;1.80;;;0.70;;
18883;SDS011;9574;47.282;9.640;2023-01-15T05:15:38;0.70;;;0.70;;
18883;SDS011;9574;47.282;9.640;2023-01-15T05:18:06;0.60;;;0.60;;
18883;SDS011;9574;47.282;9.640;2023-01-15T05:20:36;0.60;;;0.60;;
18883;SDS011;9574;47.282;9.640;2023-01-15T05:23:03;0.40;;;0.40;;
18883;SDS011;9574;47.282;9.640;2023-01-15T05:25:30;0.67;;;0.67;;
18883;SDS011;9574;47.282;9.640;2023-01-15T05:27:57;1.10;;;0.60;;
18883;SDS011;9574;47.282;9.640;2023-01-15T05:30:24;1.03;;;0.80;;
18883;SDS011;9574;47.282;9.640;2023-01-15T05:32:51;0.77;;;0.77;;
18883;SDS011;9574;47.282;9.640;2023-01-15T05:35:18;1.13;;;0.90;;
18883;SDS011;9574;47.282;9.640;2023-01-15T05:37:46;0.80;;;0.80;;
18883;SDS011;9574;47.282;9.640;2023-01-15T05:40:13;1.00;;;0.90;;
18883;SDS011;9574;47.282;9.640;2023-01-15T05:42:40;0.93;;;0.93;;
18883;SDS011;9574;47.282;9.640;2023-01-15T05:45:07;0.70;;;0.70;;
18883;SDS011;9574;47.282;9.640;2023-01-15T05:47:35;0.60;;;0.60;;
18883;SDS011;9574;47.282;9.640;2023-01-15T05:50:02;1.97;;;0.80;;
18883;SDS011;9574;47.282;9.640;2023-01-15T05:52:29;0.70;;;0.70;;
18883;SDS011;9574;47.282;9.640;2023-01-15T05:54:57;0.63;;;0.63;;
18883;SDS011;9574;47.282;9.640;2023-01-15T05:57:24;0.70;;;0.70;;
18883;SDS011;9574;47.282;9.640;2023-01-15T05:59:51;0.70;;;0.70;;
18883;SDS011;9574;47.282;9.640;2023-01-15T06:02:19;0.70;;;0.70;;
18883;SDS011;9574;47.282;9.640;2023-01-15T06:04:46;0.60;;;0.60;;
18883;SDS011;9574;47.282;9.640;2023-01-15T06:07:13;1.03;;;0.80;;
18883;SDS011;9574;47.282;9.640;2023-01-15T06:09:41;1.40;;;0.83;;
18883;SDS011;9574;47.282;9.640;2023-01-15T06:12:09;0.63;;;0.63;;
18883;SDS011;9574;47.282;9.640;2023-01-15T06:14:36;1.80;;;0.80;;
18883;SDS011;9574;47.282;9.640;2023-01-15T06:17:03;0.63;;;0.63;;
18883;SDS011;9574;47.282;9.640;2023-01-15T06:19:30;0.60;;;0.60;;
18883;SDS011;9574;47.282;9.640;2023-01-15T06:21:57;0.50;;;0.50;;
18883;SDS011;9574;47.282;9.640;2023-01-15T06:24:24;0.83;;;0.83;;
18883;SDS011;9574;47.282;9.640;2023-01-15T06:26:51;0.80;;;0.80;;
18883;SDS011;9574;47.282;9.640;2023-01-15T06:29:20;1.13;;;0.90;;
18883;SDS011;9574;47.282;9.640;2023-01-15T06:31:47;2.00;;;0.80;;
18883;SDS011;9574;47.282;9.640;2023-01-15T06:34:14;0.60;;;0.60;;
18883;SDS011;9574;47.282;9.640;2023-01-15T06:36:41;0.90;;;0.90;;
18883;SDS011;9574;47.282;9.640;2023-01-15T06:39:08;1.27;;;0.73;;
18883;SDS011;9574;47.282;9.640;2023-01-15T06:41:34;1.17;;;0.80;;
18883;SDS011;9574;47.282;9.640;2023-01-15T06:44:21;5.00;;;1.20;;
18883;SDS011;9574;47.282;9.640;2023-01-15T06:47:10;0.90;;;0.90;;
18883;SDS011;9574;47.282;9.640;2023-01-15T06:49:45;0.77;;;0.77;;
18883;SDS011;9574;47.282;9.640;2023-01-15T06:52:13;0.80;;;0.80;;
18883;SDS011;9574;47.282;9.640;2023-01-15T06:54:39;1.23;;;0.90;;
18883;SDS011;9574;47.282;9.640;2023-01-15T06:57:06;1.10;;;0.87;;
18883;SDS011;9574;47.282;9.640;2023-01-15T06:59:35;1.53;;;1.20;;
18883;SDS011;9574;47.282;9.640;2023-01-15T07:02:02;1.07;;;0.70;;
18883;SDS011;9574;47.282;9.640;2023-01-15T07:04:29;0.90;;;0.77;;
18883;SDS011;9574;47.282;9.640;2023-01-15T07:06:56;4.37;;;0.90;;
18883;SDS011;9574;47.282;9.640;2023-01-15T07:09:23;1.20;;;1.00;;
18883;SDS011;9574;47.282;9.640;2023-01-15T07:11:50;0.80;;;0.80;;
18883;SDS011;9574;47.282;9.640;2023-01-15T07:14:17;2.80;;;2.37;;
18883;SDS011;9574;47.282;9.640;2023-01-15T07:16:47;1.50;;;1.40;;
18883;SDS011;9574;47.282;9.640;2023-01-15T07:19:15;2.60;;;1.13;;
18883;SDS011;9574;47.282;9.640;2023-01-15T07:21:42;1.57;;;1.47;;
18883;SDS011;9574;47.282;9.640;2023-01-15T07:24:09;2.53;;;1.80;;
18883;SDS011;9574;47.282;9.640;2023-01-15T07:26:37;5.07;;;3.03;;
18883;SDS011;9574;47.282;9.640;2023-01-15T07:29:06;6.50;;;3.07;;
18883;SDS011;9574;47.282;9.640;2023-01-15T07:31:33;6.33;;;3.30;;
18883;SDS011;9574;47.282;9.640;2023-01-15T07:34:01;5.00;;;2.40;;
18883;SDS011;9574;47.282;9.640;2023-01-15T07:36:29;6.60;;;3.40;;
18883;SDS011;9574;47.282;9.640;2023-01-15T07:38:56;5.53;;;4.10;;
18883;SDS011;9574;47.282;9.640;2023-01-15T07:41:23;6.57;;;3.70;;
18883;SDS011;9574;47.282;9.640;2023-01-15T07:44:08;6.30;;;3.37;;
18883;SDS011;9574;47.282;9.640;2023-01-15T07:46:53;4.93;;;3.43;;
18883;SDS011;9574;47.282;9.640;2023-01-15T07:49:41;3.77;;;2.37;;
18883;SDS011;9574;47.282;9.640;2023-01-15T07:52:13;3.47;;;2.40;;
18883;SDS011;9574;47.282;9.640;2023-01-15T07:54:41;7.30;;;2.33;;
18883;SDS011;9574;47.282;9.640;2023-01-15T07:57:08;4.50;;;3.07;;
18883;SDS011;9574;47.282;9.640;2023-01-15T07:59:35;3.80;;;2.30;;
18883;SDS011;9574;47.282;9.640;2023-01-15T08:02:02;2.33;;;1.83;;
18883;SDS011;9574;47.282;9.640;2023-01-15T08:04:29;2.77;;;2.00;;
18883;SDS011;9574;47.282;9.640;2023-01-15T08:06:59;3.90;;;2.23;;
18883;SDS011;9574;47.282;9.640;2023-01-15T08:09:26;4.13;;;2.77;;
18883;SDS011;9574;47.282;9.640;2023-01-15T08:11:54;4.17;;;3.17;;
18883;SDS011;9574;47.282;9.640;2023-01-15T08:14:39;1.53;;;1.37;;
18883;SDS011;9574;47.282;9.640;2023-01-15T08:17:23;1.23;;;1.00;;
18883;SDS011;9574;47.282;9.640;2023-01-15T08:19:50;1.20;;;1.10;;
18883;SDS011;9574;47.282;9.640;2023-01-15T08:22:18;1.00;;;1.00;;
18883;SDS011;9574;47.282;9.640;2023-01-15T08:24:45;1.43;;;1.20;;
18883;SDS011;9574;47.282;9.640;2023-01-15T08:27:12;1.07;;;0.97;;
18883;SDS011;9574;47.282;9.640;2023-01-15T08:29:39;1.77;;;1.00;;
18883;SDS011;9574;47.282;9.640;2023-01-15T08:32:06;0.90;;;0.90;;
18883;SDS011;9574;47.282;9.640;2023-01-15T08:34:33;1.93;;;1.43;;
18883;SDS011;9574;47.282;9.640;2023-01-15T08:37:00;2.63;;;2.30;;
18883;SDS011;9574;47.282;9.640;2023-01-15T08:39:29;3.00;;;2.00;;
18883;SDS011;9574;47.282;9.640;2023-01-15T08:41:56;3.60;;;1.70;;
18883;SDS011;9574;47.282;9.640;2023-01-15T08:44:23;1.47;;;1.37;;
18883;SDS011;9574;47.282;9.640;2023-01-15T08:46:50;1.60;;;1.50;;
18883;SDS011;9574;47.282;9.640;2023-01-15T08:49:20;2.83;;;2.10;;
18883;SDS011;9574;47.282;9.640;2023-01-15T08:51:47;5.40;;;2.50;;
18883;SDS011;9574;47.282;9.640;2023-01-15T08:54:16;3.87;;;2.50;;
18883;SDS011;9574;47.282;9.640;2023-01-15T08:56:45;4.07;;;2.70;;
18883;SDS011;9574;47.282;9.640;2023-01-15T08:59:13;3.10;;;1.70;;
18883;SDS011;9574;47.282;9.640;2023-01-15T09:01:41;3.07;;;2.10;;
18883;SDS011;9574;47.282;9.640;2023-01-15T09:04:08;3.37;;;2.73;;
18883;SDS011;9574;47.282;9.640;2023-01-15T09:06:38;3.60;;;2.50;;
18883;SDS011;9574;47.282;9.640;2023-01-15T09:09:05;8.40;;;3.03;;
18883;SDS011;9574;47.282;9.640;2023-01-15T09:11:33;5.00;;;3.00;;
18883;SDS011;9574;47.282;9.640;2023-01-15T09:14:01;5.20;;;2.80;;
18883;SDS011;9574;47.282;9.640;2023-01-15T09:16:28;5.37;;;2.30;;
18883;SDS011;9574;47.282;9.640;2023-01-15T09:18:56;3.93;;;2.37;;
18883;SDS011;9574;47.282;9.640;2023-01-15T09:21:23;4.37;;;1.67;;
18883;SDS011;9574;47.282;9.640;2023-01-15T09:23:50;2.80;;;2.10;;
18883;SDS011;9574;47.282;9.640;2023-01-15T09:26:25;2.97;;;2.10;;
18883;SDS011;9574;47.282;9.640;2023-01-15T09:28:54;3.43;;;2.50;;
18883;SDS011;9574;47.282;9.640;2023-01-15T09:31:22;4.33;;;2.73;;
18883;SDS011;9574;47.282;9.640;2023-01-15T09:33:50;3.83;;;2.80;;
18883;SDS011;9574;47.282;9.640;2023-01-15T09:36:17;4.90;;;2.63;;
18883;SDS011;9574;47.282;9.640;2023-01-15T09:38:47;4.37;;;3.00;;
18883;SDS011;9574;47.282;9.640;2023-01-15T09:41:15;5.40;;;3.30;;
18883;SDS011;9574;47.282;9.640;2023-01-15T09:43:58;6.50;;;3.23;;
18883;SDS011;9574;47.282;9.640;2023-01-15T09:46:40;5.57;;;3.67;;
18883;SDS011;9574;47.282;9.640;2023-01-15T09:49:19;6.87;;;3.60;;
18883;SDS011;9574;47.282;9.640;2023-01-15T09:52:00;6.70;;;3.83;;
18883;SDS011;9574;47.282;9.640;2023-01-15T09:54:44;7.20;;;3.90;;
18883;SDS011;9574;47.282;9.640;2023-01-15T09:57:18;12.03;;;5.27;;
18883;SDS011;9574;47.282;9.640;2023-01-15T09:59:48;11.33;;;5.20;;
18883;SDS011;9574;47.282;9.640;2023-01-15T10:02:21;10.57;;;3.83;;
18883;SDS011;9574;47.282;9.640;2023-01-15T10:04:52;3.27;;;2.40;;
18883;SDS011;9574;47.282;9.640;2023-01-15T10:07:24;1.73;;;1.10;;
18883;SDS011;9574;47.282;9.640;2023-01-15T10:09:57;1.63;;;0.90;;
18883;SDS011;9574;47.282;9.640;2023-01-15T10:12:28;1.00;;;1.00;;
18883;SDS011;9574;47.282;9.640;2023-01-15T10:15:08;1.13;;;0.73;;
18883;SDS011;9574;47.282;9.640;2023-01-15T10:17:52;0.70;;;0.70;;
18883;SDS011;9574;47.282;9.640;2023-01-15T10:20:26;0.70;;;0.70;;
18883;SDS011;9574;47.282;9.640;2023-01-15T10:23:10;0.63;;;0.63;;
18883;SDS011;9574;47.282;9.640;2023-01-15T10:25:54;0.60;;;0.60;;
18883;SDS011;9574;47.282;9.640;2023-01-15T10:28:28;0.60;;;0.60;;
18883;SDS011;9574;47.282;9.640;2023-01-15T10:30:57;0.60;;;0.60;;
18883;SDS011;9574;47.282;9.640;2023-01-15T10:33:35;0.70;;;0.63;;
18883;SDS011;9574;47.282;9.640;2023-01-15T10:36:12;0.40;;;0.40;;
18883;SDS011;9574;47.282;9.640;2023-01-15T10:38:46;0.50;;;0.50;;
18883;SDS011;9574;47.282;9.640;2023-01-15T10:41:29;0.40;;;0.40;;
18883;SDS011;9574;47.282;9.640;2023-01-15T10:44:04;0.43;;;0.43;;
18883;SDS011;9574;47.282;9.640;2023-01-15T10:46:37;0.73;;;0.63;;
18883;SDS011;9574;47.282;9.640;2023-01-15T10:49:11;0.50;;;0.50;;
18883;SDS011;9574;47.282;9.640;2023-01-15T10:51:41;0.50;;;0.50;;
18883;SDS011;9574;47.282;9.640;2023-01-15T10:54:13;1.03;;;0.50;;
18883;SDS011;9574;47.282;9.640;2023-01-15T10:56:45;0.50;;;0.50;;
18883;SDS011;9574;47.282;9.640;2023-01-15T10:59:18;0.53;;;0.53;;
18883;SDS011;9574;47.282;9.640;2023-01-15T11:01:48;0.43;;;0.43;;
18883;SDS011;9574;47.282;9.640;2023-01-15T11:04:19;0.40;;;0.40;;
18883;SDS011;9574;47.282;9.640;2023-01-15T11:06:46;0.50;;;0.50;;
18883;SDS011;9574;47.282;9.640;2023-01-15T11:09:16;0.40;;;0.40;;
18883;SDS011;9574;47.282;9.640;2023-01-15T11:11:48;0.60;;;0.60;;
18883;SDS011;9574;47.282;9.640;2023-01-15T11:14:34;0.53;;;0.53;;
18883;SDS011;9574;47.282;9.640;2023-01-15T11:17:20;0.50;;;0.50;;
18883;SDS011;9574;47.282;9.640;2023-01-15T11:20:13;1.33;;;1.10;;
18883;SDS011;9574;47.282;9.640;2023-01-15T11:22:53;0.60;;;0.60;;
18883;SDS011;9574;47.282;9.640;2023-01-15T11:25:24;0.50;;;0.50;;
18883;SDS011;9574;47.282;9.640;2023-01-15T11:27:53;0.60;;;0.60;;
18883;SDS011;9574;47.282;9.640;2023-01-15T11:30:24;0.80;;;0.80;;
18883;SDS011;9574;47.282;9.640;2023-01-15T11:32:56;0.50;;;0.50;;
18883;SDS011;9574;47.282;9.640;2023-01-15T11:35:26;1.50;;;0.90;;
18883;SDS011;9574;47.282;9.640;2023-01-15T11:38:03;0.60;;;0.60;;
18883;SDS011;9574;47.282;9.640;2023-01-15T11:40:31;1.70;;;1.20;;
18883;SDS011;9574;47.282;9.640;2023-01-15T11:42:58;0.80;;;0.60;;
18883;SDS011;9574;47.282;9.640;2023-01-15T11:45:47;1.23;;;0.80;;
18883;SDS011;9574;47.282;9.640;2023-01-15T11:48:33;1.57;;;1.00;;
18883;SDS011;9574;47.282;9.640;2023-01-15T11:51:26;1.53;;;1.00;;
18883;SDS011;9574;47.282;9.640;2023-01-15T11:53:54;0.50;;;0.50;;
18883;SDS011;9574;47.282;9.640;2023-01-15T11:56:28;0.43;;;0.43;;
18883;SDS011;9574;47.282;9.640;2023-01-15T11:58:57;0.53;;;0.53;;
18883;SDS011;9574;47.282;9.640;2023-01-15T12:01:28;2.40;;;1.13;;
18883;SDS011;9574;47.282;9.640;2023-01-15T12:03:57;0.40;;;0.40;;
18883;SDS011;9574;47.282;9.640;2023-01-15T12:06:27;1.03;;;0.60;;
18883;SDS011;9574;47.282;9.640;2023-01-15T12:08:58;0.50;;;0.50;;
18883;SDS011;9574;47.282;9.640;2023-01-15T12:17:30;0.50;;;0.50;;
18883;SDS011;9574;47.282;9.640;2023-01-15T12:20:15;1.33;;;0.60;;
18883;SDS011;9574;47.282;9.640;2023-01-15T12:22:54;0.40;;;0.40;;
18883;SDS011;9574;47.282;9.640;2023-01-15T12:25:40;0.50;;;0.50;;
18883;SDS011;9574;47.282;9.640;2023-01-15T12:28:18;0.67;;;0.40;;
18883;SDS011;9574;47.282;9.640;2023-01-15T12:30:51;0.40;;;0.40;;
18883;SDS011;9574;47.282;9.640;2023-01-15T12:33:31;0.50;;;0.50;;
18883;SDS011;9574;47.282;9.640;2023-01-15T12:36:07;0.40;;;0.40;;
18883;SDS011;9574;47.282;9.640;2023-01-15T12:38:45;0.50;;;0.50;;
18883;SDS011;9574;47.282;9.640;2023-01-15T12:41:16;0.43;;;0.43;;
18883;SDS011;9574;47.282;9.640;2023-01-15T12:43:51;0.97;;;0.60;;
18883;SDS011;9574;47.282;9.640;2023-01-15T12:46:38;0.53;;;0.53;;
18883;SDS011;9574;47.282;9.640;2023-01-15T12:49:10;0.40;;;0.40;;
18883;SDS011;9574;47.282;9.640;2023-01-15T12:51:46;0.43;;;0.43;;
18883;SDS011;9574;47.282;9.640;2023-01-15T12:54:20;0.50;;;0.50;;
18883;SDS011;9574;47.282;9.640;2023-01-15T12:56:52;1.03;;;0.90;;
18883;SDS011;9574;47.282;9.640;2023-01-15T12:59:26;0.50;;;0.50;;
18883;SDS011;9574;47.282;9.640;2023-01-15T13:02:03;0.50;;;0.50;;
18883;SDS011;9574;47.282;9.640;2023-01-15T13:04:41;0.50;;;0.50;;
18883;SDS011;9574;47.282;9.640;2023-01-15T13:07:14;0.50;;;0.50;;
18883;SDS011;9574;47.282;9.640;2023-01-15T13:09:48;0.60;;;0.60;;
18883;SDS011;9574;47.282;9.640;2023-01-15T13:12:25;0.57;;;0.57;;
18883;SDS011;9574;47.282;9.640;2023-01-15T13:14:54;0.40;;;0.40;;
18883;SDS011;9574;47.282;9.640;2023-01-15T13:17:24;0.50;;;0.50;;
18883;SDS011;9574;47.282;9.640;2023-01-15T13:20:11;0.40;;;0.40;;
18883;SDS011;9574;47.282;9.640;2023-01-15T13:23:01;0.53;;;0.53;;
18883;SDS011;9574;47.282;9.640;2023-01-15T13:25:46;0.50;;;0.50;;
18883;SDS011;9574;47.282;9.640;2023-01-15T13:28:37;0.50;;;0.50;;
18883;SDS011;9574;47.282;9.640;2023-01-15T13:31:32;0.80;;;0.70;;
18883;SDS011;9574;47.282;9.640;2023-01-15T13:34:13;0.57;;;0.50;;
18883;SDS011;9574;47.282;9.640;2023-01-15T13:36:52;0.60;;;0.57;;
18883;SDS011;9574;47.282;9.640;2023-01-15T13:39:33;0.50;;;0.50;;
18883;SDS011;9574;47.282;9.640;2023-01-15T13:42:10;0.57;;;0.50;;
18883;SDS011;9574;47.282;9.640;2023-01-15T13:44:58;0.50;;;0.50;;
18883;SDS011;9574;47.282;9.640;2023-01-15T13:47:33;0.70;;;0.70;;
18883;SDS011;9574;47.282;9.640;2023-01-15T13:50:03;0.63;;;0.63;;
18883;SDS011;9574;47.282;9.640;2023-01-15T13:52:39;0.70;;;0.70;;
18883;SDS011;9574;47.282;9.640;2023-01-15T13:55:08;0.50;;;0.50;;
18883;SDS011;9574;47.282;9.640;2023-01-15T13:57:41;3.93;;;0.60;;
18883;SDS011;9574;47.282;9.640;2023-01-15T14:02:53;0.53;;;0.53;;
18883;SDS011;9574;47.282;9.640;2023-01-15T14:05:27;0.50;;;0.50;;
18883;SDS011;9574;47.282;9.640;2023-01-15T14:07:56;0.50;;;0.50;;
18883;SDS011;9574;47.282;9.640;2023-01-15T14:10:31;17.80;;;6.27;;
18883;SDS011;9574;47.282;9.640;2023-01-15T14:15:57;0.53;;;0.53;;
18883;SDS011;9574;47.282;9.640;2023-01-15T14:18:43;0.60;;;0.60;;
18883;SDS011;9574;47.282;9.640;2023-01-15T14:21:26;0.50;;;0.50;;
18883;SDS011;9574;47.282;9.640;2023-01-15T14:24:09;0.50;;;0.50;;
18883;SDS011;9574;47.282;9.640;2023-01-15T14:27:01;0.50;;;0.50;;
18883;SDS011;9574;47.282;9.640;2023-01-15T14:29:47;0.60;;;0.60;;
18883;SDS011;9574;47.282;9.640;2023-01-15T14:32:29;0.57;;;0.57;;
18883;SDS011;9574;47.282;9.640;2023-01-15T14:35:09;0.50;;;0.50;;
18883;SDS011;9574;47.282;9.640;2023-01-15T14:37:44;0.50;;;0.50;;
18883;SDS011;9574;47.282;9.640;2023-01-15T14:40:19;0.40;;;0.40;;
18883;SDS011;9574;47.282;9.640;2023-01-15T14:42:49;0.77;;;0.60;;
18883;SDS011;9574;47.282;9.640;2023-01-15T14:45:28;0.50;;;0.50;;
18883;SDS011;9574;47.282;9.640;2023-01-15T14:47:57;1.00;;;0.97;;
18883;SDS011;9574;47.282;9.640;2023-01-15T14:50:27;0.50;;;0.50;;
18883;SDS011;9574;47.282;9.640;2023-01-15T14:56:00;0.43;;;0.43;;
18883;SDS011;9574;47.282;9.640;2023-01-15T14:58:38;0.40;;;0.40;;
18883;SDS011;9574;47.282;9.640;2023-01-15T15:04:10;0.67;;;0.67;;
18883;SDS011;9574;47.282;9.640;2023-01-15T15:06:43;0.50;;;0.50;;
18883;SDS011;9574;47.282;9.640;2023-01-15T15:09:23;0.40;;;0.40;;
18883;SDS011;9574;47.282;9.640;2023-01-15T15:11:56;0.50;;;0.50;;
18883;SDS011;9574;47.282;9.640;2023-01-15T15:14:48;0.50;;;0.50;;
18883;SDS011;9574;47.282;9.640;2023-01-15T15:17:28;0.50;;;0.50;;
18883;SDS011;9574;47.282;9.640;2023-01-15T15:20:01;0.60;;;0.60;;
18883;SDS011;9574;47.282;9.640;2023-01-15T15:22:42;0.80;;;0.80;;
18883;SDS011;9574;47.282;9.640;2023-01-15T15:25:13;2.10;;;0.77;;
18883;SDS011;9574;47.282;9.640;2023-01-15T15:27:46;1.03;;;0.70;;
18883;SDS011;9574;47.282;9.640;2023-01-15T15:30:13;0.63;;;0.63;;
18883;SDS011;9574;47.282;9.640;2023-01-15T15:32:43;1.33;;;1.07;;
18883;SDS011;9574;47.282;9.640;2023-01-15T15:35:20;6.83;;;2.70;;
18883;SDS011;9574;47.282;9.640;2023-01-15T15:37:52;1.90;;;1.17;;
18883;SDS011;9574;47.282;9.640;2023-01-15T15:40:20;1.30;;;0.93;;
18883;SDS011;9574;47.282;9.640;2023-01-15T15:42:56;0.80;;;0.80;;
18883;SDS011;9574;47.282;9.640;2023-01-15T15:45:50;1.83;;;1.73;;
18883;SDS011;9574;47.282;9.640;2023-01-15T15:48:36;0.93;;;0.90;;